createdAt,value
2023-01-18T00:00:33.775Z,6.53
2023-01-18T00:03:02.138Z,7.28
2023-01-18T00:05:30.138Z,6.88
2023-01-18T00:07:58.209Z,6.57
2023-01-18T00:10:27.779Z,6.82
2023-01-18T00:12:56.290Z,6.28
2023-01-18T00:15:24.451Z,6.30
2023-01-18T00:17:52.826Z,6.15
2023-01-18T00:20:23.364Z,7.25
2023-01-18T00:22:52.249Z,5.93
2023-01-18T00:25:21.044Z,8.57
2023-01-18T00:27:51.912Z,5.85
2023-01-18T00:30:21.935Z,6.03
2023-01-18T00:32:50.163Z,7.10
2023-01-18T00:35:22.204Z,7.22
2023-01-18T00:40:19.015Z,6.40
2023-01-18T00:43:04.221Z,7.10
2023-01-18T00:45:33.492Z,6.57
2023-01-18T00:48:02.715Z,6.97
2023-01-18T00:50:31.033Z,6.50
2023-01-18T00:53:00.183Z,5.90
2023-01-18T00:55:28.360Z,7.10
2023-01-18T00:57:56.215Z,6.18
2023-01-18T01:00:27.065Z,6.15
2023-01-18T01:02:57.014Z,7.50
2023-01-18T01:05:44.290Z,6.28
2023-01-18T01:08:17.466Z,6.88
2023-01-18T01:10:46.628Z,6.20
2023-01-18T01:13:32.260Z,6.05
2023-01-18T01:16:17.808Z,6.38
2023-01-18T01:19:04.628Z,6.20
2023-01-18T01:21:49.894Z,6.53
2023-01-18T01:24:35.141Z,6.20
2023-01-18T01:27:02.965Z,6.65
2023-01-18T01:29:31.145Z,6.85
2023-01-18T01:31:59.099Z,5.95
2023-01-18T01:34:30.040Z,6.25
2023-01-18T01:36:58.027Z,6.28
2023-01-18T01:39:25.939Z,6.55
2023-01-18T01:41:53.930Z,6.68
2023-01-18T01:44:44.804Z,6.45
2023-01-18T01:47:15.567Z,5.95
2023-01-18T01:49:48.389Z,6.53
2023-01-18T01:52:18.303Z,6.45
2023-01-18T01:54:48.827Z,7.03
2023-01-18T01:57:20.564Z,6.43
2023-01-18T01:59:52.427Z,5.93
2023-01-18T02:02:20.466Z,6.20
2023-01-18T02:04:53.940Z,6.30
2023-01-18T02:07:22.383Z,6.75
2023-01-18T02:09:51.240Z,7.28
2023-01-18T02:12:19.226Z,6.40
2023-01-18T02:14:47.729Z,7.15
2023-01-18T02:17:30.943Z,6.40
2023-01-18T02:20:34.771Z,7.22
2023-01-18T02:23:23.613Z,6.90
2023-01-18T02:26:14.048Z,6.22
2023-01-18T02:28:47.041Z,6.47
2023-01-18T02:31:17.287Z,6.13
2023-01-18T02:33:47.120Z,6.40
2023-01-18T02:36:22.145Z,6.45
2023-01-18T02:38:57.538Z,5.35
2023-01-18T02:41:51.699Z,7.90
2023-01-18T02:44:54.295Z,6.43
2023-01-18T02:49:49.873Z,7.13
2023-01-18T02:52:40.794Z,6.43
2023-01-18T02:55:13.497Z,6.38
2023-01-18T02:57:41.789Z,6.93
2023-01-18T03:00:12.882Z,6.97
2023-01-18T03:02:41.507Z,6.57
2023-01-18T03:05:10.635Z,6.30
2023-01-18T03:07:43.022Z,7.22
2023-01-18T03:10:12.331Z,6.93
2023-01-18T03:12:47.446Z,6.75
2023-01-18T03:15:21.588Z,6.93
2023-01-18T03:17:52.191Z,7.07
2023-01-18T03:20:25.699Z,6.72
2023-01-18T03:23:15.301Z,6.50
2023-01-18T03:25:44.911Z,6.20
2023-01-18T03:28:32.566Z,5.90
2023-01-18T03:31:22.730Z,6.43
2023-01-18T03:33:54.414Z,6.53
2023-01-18T03:36:28.082Z,6.28
2023-01-18T03:38:57.975Z,6.80
2023-01-18T03:41:28.242Z,5.97
2023-01-18T03:43:58.613Z,6.45
2023-01-18T03:46:30.404Z,7.13
2023-01-18T03:48:58.229Z,6.32
2023-01-18T03:51:30.201Z,6.95
2023-01-18T03:54:02.665Z,5.63
2023-01-18T03:56:35.906Z,6.35
2023-01-18T03:59:05.876Z,5.80
2023-01-18T04:01:35.314Z,6.38
2023-01-18T04:04:03.444Z,5.82
2023-01-18T04:06:32.538Z,6.05
2023-01-18T04:09:00.426Z,6.25
2023-01-18T04:11:28.174Z,6.93
2023-01-18T04:13:55.878Z,6.28
2023-01-18T04:16:23.903Z,6.10
2023-01-18T04:18:53.489Z,6.40
2023-01-18T04:21:21.161Z,5.88
2023-01-18T04:23:48.892Z,6.43
2023-01-18T04:26:16.828Z,6.40
2023-01-18T04:28:44.604Z,6.22
2023-01-18T04:31:12.507Z,6.13
2023-01-18T04:33:40.300Z,7.05
2023-01-18T04:36:10.392Z,6.72
2023-01-18T04:38:38.136Z,6.28
2023-01-18T04:41:06.462Z,6.15
2023-01-18T04:43:34.257Z,6.28
2023-01-18T04:46:02.040Z,5.82
2023-01-18T04:48:29.943Z,6.55
2023-01-18T04:50:57.798Z,6.18
2023-01-18T04:53:27.130Z,6.53
2023-01-18T04:55:55.134Z,6.40
2023-01-18T04:58:22.881Z,6.03
2023-01-18T05:00:50.664Z,6.68
2023-01-18T05:03:18.435Z,6.05
2023-01-18T05:05:47.047Z,6.07
2023-01-18T05:08:14.907Z,5.80
2023-01-18T05:10:44.059Z,6.18
2023-01-18T05:13:11.794Z,6.75
2023-01-18T05:15:40.102Z,6.43
2023-01-18T05:18:08.067Z,5.53
2023-01-18T05:20:35.787Z,6.25
2023-01-18T05:23:10.637Z,6.55
2023-01-18T05:25:40.168Z,6.28
2023-01-18T05:28:09.696Z,6.32
2023-01-18T05:31:09.704Z,6.75
2023-01-18T05:33:37.834Z,6.22
2023-01-18T05:36:05.995Z,6.00
2023-01-18T05:38:33.634Z,6.88
2023-01-18T05:41:01.530Z,6.28
2023-01-18T05:43:30.708Z,6.80
2023-01-18T05:45:58.756Z,6.70
2023-01-18T05:48:26.930Z,5.95
2023-01-18T05:50:54.568Z,6.95
2023-01-18T05:53:23.146Z,6.25
2023-01-18T05:55:58.288Z,7.07
2023-01-18T05:58:26.268Z,5.88
2023-01-18T06:00:55.930Z,6.60
2023-01-18T06:03:25.231Z,6.03
2023-01-18T06:05:53.402Z,6.57
2023-01-18T06:08:21.262Z,6.45
2023-01-18T06:10:53.979Z,7.10
2023-01-18T06:13:22.070Z,6.55
2023-01-18T06:15:49.865Z,7.10
2023-01-18T06:18:19.183Z,6.85
2023-01-18T06:20:46.864Z,6.65
2023-01-18T06:23:14.875Z,5.97
2023-01-18T06:25:42.500Z,5.90
2023-01-18T06:28:10.212Z,6.07
2023-01-18T06:30:37.930Z,6.97
2023-01-18T06:33:07.043Z,6.15
2023-01-18T06:35:37.146Z,6.05
2023-01-18T06:38:05.856Z,5.65
2023-01-18T06:40:33.596Z,5.55
2023-01-18T06:43:01.600Z,7.32
2023-01-18T06:45:29.767Z,6.15
2023-01-18T06:47:57.493Z,6.00
2023-01-18T06:50:25.765Z,6.32
2023-01-18T06:52:55.852Z,6.38
2023-01-18T06:55:23.785Z,5.35
2023-01-18T06:57:51.395Z,6.50
2023-01-18T07:00:19.891Z,6.22
2023-01-18T07:02:47.532Z,5.22
2023-01-18T07:05:15.131Z,6.32
2023-01-18T07:07:42.770Z,5.88
2023-01-18T07:10:16.096Z,5.70
2023-01-18T07:12:48.647Z,5.55
2023-01-18T07:15:21.848Z,5.82
2023-01-18T07:17:50.852Z,5.80
2023-01-18T07:20:19.935Z,5.80
2023-01-18T07:22:52.576Z,5.65
2023-01-18T07:25:22.600Z,5.85
2023-01-18T07:27:50.259Z,5.40
2023-01-18T07:30:18.708Z,6.65
2023-01-18T07:32:49.406Z,6.20
2023-01-18T07:35:18.384Z,5.95
2023-01-18T07:37:49.183Z,5.60
2023-01-18T07:40:17.227Z,6.10
2023-01-18T07:42:46.751Z,6.65
2023-01-18T07:45:14.779Z,5.85
2023-01-18T07:47:42.628Z,6.07
2023-01-18T07:50:11.905Z,7.35
2023-01-18T07:52:39.579Z,5.90
2023-01-18T07:55:07.885Z,6.07
2023-01-18T07:57:35.690Z,6.43
2023-01-18T08:00:07.175Z,5.82
2023-01-18T08:02:35.196Z,6.00
2023-01-18T08:05:03.726Z,6.28
2023-01-18T08:07:32.990Z,6.15
2023-01-18T08:10:00.704Z,7.07
2023-01-18T08:12:28.478Z,6.47
2023-01-18T08:14:56.100Z,5.95
2023-01-18T08:17:25.157Z,6.30
2023-01-18T08:19:52.819Z,6.35
2023-01-18T08:22:20.435Z,6.20
2023-01-18T08:24:48.028Z,6.82
2023-01-18T08:27:16.763Z,5.63
2023-01-18T08:29:44.384Z,5.88
2023-01-18T08:32:12.030Z,6.32
2023-01-18T08:34:40.951Z,6.40
2023-01-18T08:37:08.646Z,6.15
2023-01-18T08:39:36.234Z,5.70
2023-01-18T08:42:03.851Z,6.15
2023-01-18T08:44:31.492Z,7.00
2023-01-18T08:46:59.250Z,6.13
2023-01-18T08:49:27.546Z,5.93
2023-01-18T08:51:57.396Z,5.90
2023-01-18T08:54:25.560Z,5.53
2023-01-18T08:56:53.302Z,7.93
2023-01-18T08:59:23.684Z,6.50
2023-01-18T09:01:51.431Z,6.35
2023-01-18T09:04:19.425Z,6.97
2023-01-18T09:06:51.508Z,7.05
2023-01-18T09:11:51.665Z,6.57
2023-01-18T09:14:19.741Z,6.20
2023-01-18T09:16:47.713Z,7.32
2023-01-18T09:19:15.531Z,7.35
2023-01-18T09:21:45.828Z,7.43
2023-01-18T09:24:14.055Z,8.95
2023-01-18T09:26:45.084Z,7.70
2023-01-18T09:29:13.129Z,8.37
2023-01-18T09:31:40.762Z,7.47
2023-01-18T09:34:18.783Z,7.60
2023-01-18T09:36:47.595Z,7.75
2023-01-18T09:39:15.232Z,7.50
2023-01-18T09:41:46.975Z,6.82
2023-01-18T09:44:19.290Z,7.40
2023-01-18T09:46:51.868Z,7.25
2023-01-18T09:49:25.763Z,7.20
2023-01-18T09:52:01.110Z,6.78
2023-01-18T09:54:36.762Z,6.60
2023-01-18T09:57:10.103Z,7.28
2023-01-18T09:59:42.999Z,6.95
2023-01-18T10:02:18.433Z,6.57
2023-01-18T10:04:48.887Z,6.22
2023-01-18T10:07:18.034Z,6.03
2023-01-18T10:09:49.623Z,6.75
2023-01-18T10:12:23.640Z,7.05
2023-01-18T10:14:55.759Z,6.72
2023-01-18T10:17:25.310Z,6.55
2023-01-18T10:19:53.025Z,6.97
2023-01-18T10:22:23.661Z,6.82
2023-01-18T10:24:57.462Z,6.82
2023-01-18T10:27:41.463Z,6.28
2023-01-18T10:30:19.640Z,6.30
2023-01-18T10:32:51.905Z,6.28
2023-01-18T10:35:25.963Z,5.90
2023-01-18T10:37:56.518Z,6.15
2023-01-18T10:40:24.270Z,6.35
2023-01-18T10:42:56.659Z,6.50
2023-01-18T10:45:27.334Z,6.47
2023-01-18T10:47:56.771Z,6.72
2023-01-18T10:50:35.634Z,6.55
2023-01-18T10:53:21.011Z,6.20
2023-01-18T10:55:54.132Z,6.40
2023-01-18T10:58:28.043Z,6.63
2023-01-18T11:00:56.225Z,5.90
2023-01-18T11:03:26.274Z,6.38
2023-01-18T11:05:54.261Z,7.05
2023-01-18T11:08:24.071Z,6.35
2023-01-18T11:11:02.085Z,6.53
2023-01-18T11:13:34.753Z,6.97
2023-01-18T11:16:18.051Z,6.45
2023-01-18T11:19:03.288Z,7.07
2023-01-18T11:21:41.123Z,7.50
2023-01-18T11:24:14.013Z,9.43
2023-01-18T11:26:52.096Z,7.35
2023-01-18T11:29:23.245Z,6.95
2023-01-18T11:31:53.052Z,7.53
2023-01-18T11:34:24.278Z,7.22
2023-01-18T11:36:51.941Z,7.30
2023-01-18T11:39:31.122Z,7.57
2023-01-18T11:42:19.689Z,7.53
2023-01-18T11:44:54.695Z,7.13
2023-01-18T11:47:26.974Z,7.60
2023-01-18T11:50:03.722Z,8.10
2023-01-18T11:52:42.284Z,7.00
2023-01-18T11:55:23.460Z,7.10
2023-01-18T11:57:52.175Z,7.13
2023-01-18T12:00:28.087Z,6.93
2023-01-18T12:03:23.386Z,6.60
2023-01-18T12:05:54.870Z,6.38
2023-01-18T12:08:44.930Z,5.20
2023-01-18T12:11:30.686Z,7.20
2023-01-18T12:14:03.137Z,6.70
2023-01-18T12:16:47.393Z,6.72
2023-01-18T12:19:42.986Z,8.10
2023-01-18T12:22:29.667Z,6.90
2023-01-18T12:25:06.594Z,6.75
2023-01-18T12:27:41.609Z,7.63
2023-01-18T12:30:20.229Z,6.85
2023-01-18T12:33:06.609Z,7.45
2023-01-18T12:36:02.772Z,6.88
2023-01-18T12:38:33.234Z,7.07
2023-01-18T12:41:16.522Z,7.72
2023-01-18T12:43:53.248Z,7.28
2023-01-18T12:46:26.198Z,7.47
2023-01-18T12:48:58.791Z,7.35
2023-01-18T12:51:28.567Z,7.53
2023-01-18T12:53:58.725Z,8.55
2023-01-18T12:56:28.890Z,7.32
2023-01-18T12:58:58.970Z,7.95
2023-01-18T13:01:28.732Z,8.00
2023-01-18T13:04:02.043Z,8.20
2023-01-18T13:06:29.907Z,9.68
2023-01-18T13:09:01.112Z,8.07
2023-01-18T13:11:31.759Z,8.20
2023-01-18T13:14:07.152Z,7.97
2023-01-18T13:16:44.432Z,7.72
2023-01-18T13:19:14.956Z,8.80
2023-01-18T13:21:49.545Z,8.82
2023-01-18T13:24:25.247Z,8.70
2023-01-18T13:26:54.172Z,8.15
2023-01-18T13:29:25.888Z,8.20
2023-01-18T13:31:53.953Z,8.02
2023-01-18T13:34:28.766Z,7.10
2023-01-18T13:37:12.931Z,7.38
2023-01-18T13:39:46.163Z,7.47
2023-01-18T13:42:26.614Z,7.43
2023-01-18T13:45:17.207Z,7.68
2023-01-18T13:47:52.331Z,7.43
2023-01-18T13:50:45.229Z,7.97
2023-01-18T13:53:26.676Z,7.65
2023-01-18T13:56:34.520Z,8.25
2023-01-18T13:59:04.825Z,6.95
2023-01-18T14:01:37.330Z,7.07
2023-01-18T14:04:17.470Z,7.75
2023-01-18T14:06:46.879Z,8.27
2023-01-18T14:09:16.225Z,7.85
2023-01-18T14:11:52.161Z,6.45
2023-01-18T14:14:29.282Z,7.60
2023-01-18T14:17:02.439Z,6.57
2023-01-18T14:19:32.614Z,6.95
2023-01-18T14:22:19.291Z,6.88
2023-01-18T14:25:01.956Z,7.32
2023-01-18T14:27:32.595Z,7.05
2023-01-18T14:30:04.493Z,7.57
2023-01-18T14:32:36.120Z,7.93
2023-01-18T14:35:05.540Z,7.57
2023-01-18T14:37:35.580Z,9.65
2023-01-18T14:40:05.549Z,8.43
2023-01-18T14:42:34.994Z,8.38
2023-01-18T14:45:03.354Z,8.30
2023-01-18T14:47:33.487Z,8.20
2023-01-18T14:50:03.262Z,8.70
2023-01-18T14:52:33.195Z,10.25
2023-01-18T14:55:02.558Z,13.45
2023-01-18T14:57:30.492Z,18.73
2023-01-18T15:00:13.036Z,10.90
2023-01-18T15:02:40.832Z,8.73
2023-01-18T15:05:12.509Z,9.02
2023-01-18T15:07:40.890Z,8.30
2023-01-18T15:10:11.324Z,8.45
2023-01-18T15:12:39.377Z,7.88
2023-01-18T15:15:09.985Z,13.18
2023-01-18T15:17:38.719Z,9.18
2023-01-18T15:20:09.651Z,9.38
2023-01-18T15:22:40.479Z,8.40
2023-01-18T15:25:19.077Z,15.07
2023-01-18T15:27:50.386Z,9.23
2023-01-18T15:30:19.819Z,9.48
2023-01-18T15:32:49.287Z,9.93
2023-01-18T15:35:17.504Z,8.75
2023-01-18T15:37:45.221Z,9.60
2023-01-18T15:40:26.913Z,9.40
2023-01-18T15:43:02.028Z,9.90
2023-01-18T15:45:33.094Z,11.13
2023-01-18T15:48:03.398Z,7.60
2023-01-18T15:50:35.637Z,10.88
2023-01-18T15:53:12.057Z,9.95
2023-01-18T15:55:48.513Z,10.00
2023-01-18T15:58:24.062Z,9.02
2023-01-18T16:00:56.145Z,9.85
2023-01-18T16:06:03.628Z,9.60
2023-01-18T16:08:31.506Z,12.93
2023-01-18T16:11:00.609Z,9.95
2023-01-18T16:13:32.851Z,8.90
2023-01-18T16:16:14.403Z,8.65
2023-01-18T16:18:43.957Z,9.25
2023-01-18T16:21:14.947Z,9.00
2023-01-18T16:23:44.449Z,9.80
2023-01-18T16:26:14.487Z,10.43
2023-01-18T16:28:42.185Z,8.48
2023-01-18T16:31:10.004Z,9.30
2023-01-18T16:33:37.787Z,8.35
2023-01-18T16:36:16.534Z,9.02
2023-01-18T16:38:44.252Z,8.63
2023-01-18T16:41:14.800Z,9.90
2023-01-18T16:43:44.935Z,21.63
2023-01-18T16:46:13.077Z,8.75
2023-01-18T16:48:40.886Z,21.27
2023-01-18T16:51:16.059Z,9.43
2023-01-18T16:53:43.989Z,8.50
2023-01-18T16:56:16.664Z,28.67
2023-01-18T16:58:44.722Z,12.05
2023-01-18T17:01:13.870Z,11.32
2023-01-18T17:03:41.959Z,10.15
2023-01-18T17:06:15.771Z,10.23
2023-01-18T17:08:43.497Z,11.10
2023-01-18T17:11:11.990Z,11.00
2023-01-18T17:13:41.382Z,8.85
2023-01-18T17:16:13.332Z,9.82
2023-01-18T17:18:40.965Z,8.35
2023-01-18T17:21:11.103Z,8.05
2023-01-18T17:23:39.983Z,9.18
2023-01-18T17:26:09.137Z,8.95
2023-01-18T17:28:36.833Z,8.52
2023-01-18T17:31:06.236Z,8.40
2023-01-18T17:33:38.398Z,14.13
2023-01-18T17:38:34.282Z,12.50
2023-01-18T17:41:02.574Z,10.48
2023-01-18T17:43:34.615Z,9.60
2023-01-18T17:48:33.113Z,7.57
2023-01-18T17:51:00.887Z,8.98
2023-01-18T17:53:28.747Z,9.02
2023-01-18T17:58:44.294Z,9.15
2023-01-18T18:04:59.350Z,8.60
2023-01-18T18:07:28.156Z,10.13
2023-01-18T18:10:01.074Z,12.10
2023-01-18T18:12:30.417Z,14.55
2023-01-18T18:14:58.539Z,23.58
2023-01-18T18:17:27.944Z,25.80
2023-01-18T18:19:57.249Z,17.40
2023-01-18T18:22:25.396Z,13.02
2023-01-18T18:24:53.640Z,12.65
2023-01-18T18:27:21.979Z,12.73
2023-01-18T18:29:51.279Z,10.95
2023-01-18T18:32:21.392Z,9.65
2023-01-18T18:35:14.698Z,17.90
2023-01-18T18:37:52.394Z,13.30
2023-01-18T18:40:20.511Z,12.75
2023-01-18T18:43:00.641Z,11.43
2023-01-18T18:45:31.049Z,12.18
2023-01-18T18:47:59.016Z,11.50
2023-01-18T18:50:28.966Z,12.85
2023-01-18T18:52:57.684Z,12.32
2023-01-18T18:55:26.489Z,13.20
2023-01-18T18:57:54.798Z,20.10
2023-01-18T19:00:24.593Z,14.18
2023-01-18T19:02:52.533Z,14.80
2023-01-18T19:05:23.887Z,14.32
2023-01-18T19:07:56.877Z,11.45
2023-01-18T19:10:27.529Z,14.10
2023-01-18T19:12:55.820Z,22.50
2023-01-18T19:15:23.925Z,16.35
2023-01-18T19:17:53.582Z,14.10
2023-01-18T19:20:22.183Z,17.10
2023-01-18T19:22:51.114Z,14.52
2023-01-18T19:25:29.523Z,14.68
2023-01-18T19:27:57.546Z,12.68
2023-01-18T19:30:27.509Z,12.60
2023-01-18T19:33:20.725Z,11.30
2023-01-18T19:35:54.303Z,18.20
2023-01-18T19:38:22.848Z,14.02
2023-01-18T19:40:52.309Z,14.38
2023-01-18T19:43:20.395Z,12.38
2023-01-18T19:45:48.951Z,11.70
2023-01-18T19:49:00.429Z,12.73
2023-01-18T19:51:55.793Z,12.43
2023-01-18T19:54:24.727Z,15.88
2023-01-18T19:56:54.201Z,15.13
2023-01-18T19:59:22.114Z,18.83
2023-01-18T20:01:51.827Z,21.20
2023-01-18T20:12:20.635Z,19.52
2023-01-18T20:14:50.406Z,61.58
2023-01-18T20:17:20.059Z,19.90
2023-01-18T20:19:51.284Z,19.75
2023-01-18T20:22:19.583Z,18.02
2023-01-18T20:24:47.996Z,16.38
2023-01-18T20:27:18.333Z,24.58
2023-01-18T20:29:46.688Z,16.77
2023-01-18T20:32:17.206Z,18.35
2023-01-18T20:34:52.771Z,15.32
2023-01-18T20:37:22.428Z,20.77
2023-01-18T20:39:51.075Z,15.18
2023-01-18T20:42:20.884Z,20.38
2023-01-18T20:45:03.990Z,14.77
2023-01-18T20:47:32.958Z,18.85
2023-01-18T20:50:44.690Z,13.20
2023-01-18T20:53:15.305Z,11.37
2023-01-18T20:55:45.180Z,17.90
2023-01-18T20:58:19.653Z,16.25
2023-01-18T21:00:47.755Z,17.55
2023-01-18T21:03:17.967Z,20.98
2023-01-18T21:05:46.632Z,22.40
2023-01-18T21:08:17.436Z,18.88
2023-01-18T21:10:46.310Z,16.40
2023-01-18T21:13:14.211Z,19.17
2023-01-18T21:15:45.944Z,21.92
2023-01-18T21:18:14.001Z,24.38
2023-01-18T21:20:41.956Z,24.23
2023-01-18T21:23:10.877Z,22.13
2023-01-18T21:25:38.917Z,20.40
2023-01-18T21:28:06.775Z,23.75
2023-01-18T21:30:34.724Z,23.25
2023-01-18T21:33:04.037Z,22.60
2023-01-18T21:35:32.104Z,25.63
2023-01-18T21:38:02.949Z,21.80
2023-01-18T21:40:30.981Z,24.40
2023-01-18T21:43:24.636Z,20.20
2023-01-18T21:45:59.083Z,26.02
2023-01-18T21:48:30.009Z,20.77
2023-01-18T21:51:18.229Z,25.10
2023-01-18T21:54:03.478Z,23.35
2023-01-18T21:56:31.592Z,24.75
2023-01-18T21:59:01.133Z,23.40
2023-01-18T22:01:34.447Z,26.63
2023-01-18T22:04:22.505Z,23.73
2023-01-18T22:06:51.122Z,22.92
2023-01-18T22:09:19.210Z,24.13
2023-01-18T22:11:47.500Z,26.58
2023-01-18T22:14:15.636Z,23.25
2023-01-18T22:16:43.733Z,26.73
2023-01-18T22:19:13.275Z,21.15
2023-01-18T22:21:41.255Z,27.48
2023-01-18T22:24:09.619Z,22.58
2023-01-18T22:26:39.044Z,27.58
2023-01-18T22:29:06.987Z,25.60
2023-01-18T22:31:34.834Z,22.10
2023-01-18T22:34:04.616Z,25.65
2023-01-18T22:36:35.178Z,20.38
2023-01-18T22:39:03.239Z,21.88
2023-01-18T22:41:31.202Z,18.23
2023-01-18T22:43:59.168Z,19.88
2023-01-18T22:46:27.336Z,17.13
2023-01-18T22:48:55.285Z,21.27
2023-01-18T22:51:24.221Z,19.55
2023-01-18T22:53:53.700Z,13.80
2023-01-18T22:56:23.508Z,17.90
2023-01-18T22:58:52.937Z,16.67
2023-01-18T23:01:22.556Z,18.98
2023-01-18T23:03:51.141Z,14.50
2023-01-18T23:06:20.286Z,15.23
2023-01-18T23:08:48.613Z,16.98
2023-01-18T23:11:19.788Z,19.95
2023-01-18T23:14:15.479Z,15.43
2023-01-18T23:17:06.826Z,16.90
2023-01-18T23:19:34.851Z,18.30
2023-01-18T23:22:07.181Z,14.45
2023-01-18T23:24:36.034Z,20.92
2023-01-18T23:27:06.216Z,20.85
2023-01-18T23:29:34.064Z,18.75
2023-01-18T23:32:01.872Z,18.98
2023-01-18T23:34:29.971Z,21.08
2023-01-18T23:36:58.339Z,18.92
2023-01-18T23:39:43.981Z,18.73
2023-01-18T23:42:30.810Z,16.02
2023-01-18T23:45:16.489Z,17.88
2023-01-18T23:48:01.949Z,18.63
2023-01-18T23:50:47.516Z,15.60
2023-01-18T23:53:32.625Z,18.63
2023-01-18T23:56:00.715Z,14.43
2023-01-18T23:58:29.978Z,19.50
